Time;durP1;ratioP1;P1;durP2;ratioP2;P2;SDS_P1;SDS_P2;PMS_P1;PMS_P2;Temp;Humidity;BMP_temperature;BMP_pressure;BME280_temperature;BME280_humidity;BME280_pressure;Samples;Min_cycle;Max_cycle;Signal;HPM_P1;HPM_P2
2022/01/21 00:00:58;;;;;;;;;;;22.60;29.90;;;;;;459070;260;1190;-46
2022/01/21 00:02:59;;;;;;;;;;;22.60;29.90;;;;;;458885;260;1159;-46
2022/01/21 00:05:01;;;;;;;;;;;22.60;29.90;;;;;;458916;260;2217;-43
2022/01/21 00:07:02;;;;;;;;;;;22.60;29.90;;;;;;458820;260;1333;-43
2022/01/21 00:09:03;;;;;;;;;;;22.60;29.80;;;;;;458901;260;1201;-44
2022/01/21 00:11:05;;;;;;;;;;;22.60;29.90;;;;;;459305;260;1320;-44
2022/01/21 00:13:15;;;;;;;;;;;22.60;29.90;;;;;;451502;264;1359;-43
2022/01/21 00:15:08;;;;;;;;;;;22.60;29.90;;;;;;460187;258;1966;-46
2022/01/21 00:17:10;;;;;;;;;;;22.60;29.90;;;;;;459287;258;1341;-46
2022/01/21 00:19:13;;;;;;;;;;;22.60;29.90;;;;;;459184;260;1360;-46
2022/01/21 00:30:30;;;;;;;;;;;22.60;29.80;;;;;;458874;260;1103;-46
2022/01/21 00:32:31;;;;;;;;;;;22.70;29.90;;;;;;458961;260;1210;-46
2022/01/21 00:34:32;;;;;;;;;;;22.70;29.90;;;;;;459294;260;1224;-46
2022/01/21 00:36:34;;;;;;;;;;;22.70;29.90;;;;;;458978;260;1245;-45
2022/01/21 00:38:35;;;;;;;;;;;22.60;29.80;;;;;;459323;260;1289;-46
2022/01/21 00:40:36;;;;;;;;;;;22.70;29.90;;;;;;459166;260;1061;-46
2022/01/21 00:42:54;;;;;;;;;;;22.70;29.90;;;;;;458946;260;1411;-46
2022/01/21 00:44:50;;;;;;;;;;;22.70;29.90;;;;;;458604;259;2286;-46
2022/01/21 00:46:52;;;;;;;;;;;22.70;29.90;;;;;;459190;260;1371;-46
2022/01/21 00:48:53;;;;;;;;;;;22.70;29.90;;;;;;458865;260;1283;-46
2022/01/21 00:50:54;;;;;;;;;;;22.70;29.80;;;;;;458975;260;1323;-46
2022/01/21 00:52:56;;;;;;;;;;;22.70;29.80;;;;;;458853;260;1189;-46
2022/01/21 00:54:57;;;;;;;;;;;22.70;29.90;;;;;;459167;260;1036;-46
2022/01/21 00:56:58;;;;;;;;;;;22.70;29.80;;;;;;458910;260;1353;-46
2022/01/21 00:59:00;;;;;;;;;;;22.70;29.80;;;;;;459287;260;1065;-46
2022/01/21 01:01:01;;;;;;;;;;;22.70;29.90;;;;;;458853;260;1203;-46
2022/01/21 01:03:02;;;;;;;;;;;22.70;29.80;;;;;;458876;260;1302;-46
2022/01/21 01:05:04;;;;;;;;;;;22.70;29.80;;;;;;459260;260;2122;-46
2022/01/21 01:07:05;;;;;;;;;;;22.70;29.80;;;;;;458879;260;1268;-46
2022/01/21 01:09:06;;;;;;;;;;;22.80;29.90;;;;;;458936;260;1072;-46
2022/01/21 01:11:23;;;;;;;;;;;22.80;29.90;;;;;;458834;260;1084;-46
2022/01/21 01:20:22;;;;;;;;;;;22.80;29.90;;;;;;459035;260;2212;-43
2022/01/21 01:22:29;;;;;;;;;;;22.80;29.80;;;;;;459068;260;1030;-44
2022/01/21 01:29:03;;;;;;;;;;;22.80;29.80;;;;;;459268;260;1201;-43
2022/01/21 01:31:05;;;;;;;;;;;22.80;29.80;;;;;;459236;260;1070;-44
2022/01/21 01:33:08;;;;;;;;;;;22.80;29.80;;;;;;459180;260;1354;-46
2022/01/21 01:35:08;;;;;;;;;;;22.80;29.80;;;;;;458773;259;2036;-46
2022/01/21 01:37:17;;;;;;;;;;;22.80;29.80;;;;;;458807;260;1494;-46
2022/01/21 01:39:17;;;;;;;;;;;22.80;29.80;;;;;;458480;259;2366;-46
2022/01/21 01:41:16;;;;;;;;;;;22.80;29.80;;;;;;458514;259;2230;-46
2022/01/21 01:50:12;;;;;;;;;;;22.80;29.80;;;;;;459274;260;1237;-46
2022/01/21 01:52:13;;;;;;;;;;;22.80;29.80;;;;;;458794;260;1227;-46
2022/01/21 01:54:14;;;;;;;;;;;22.80;29.80;;;;;;459292;260;1099;-45
2022/01/21 01:56:17;;;;;;;;;;;22.80;29.80;;;;;;459222;259;1162;-46
2022/01/21 01:58:17;;;;;;;;;;;22.80;29.80;;;;;;458790;259;1732;-46
2022/01/21 02:00:18;;;;;;;;;;;22.80;29.80;;;;;;458994;260;1057;-46
2022/01/21 02:02:20;;;;;;;;;;;22.80;29.80;;;;;;458921;260;1201;-46
2022/01/21 02:04:21;;;;;;;;;;;22.80;29.80;;;;;;458951;260;2190;-46
2022/01/21 02:06:22;;;;;;;;;;;22.80;29.80;;;;;;459033;259;1795;-46
2022/01/21 02:08:24;;;;;;;;;;;22.90;29.90;;;;;;451474;264;1244;-46
2022/01/21 02:10:25;;;;;;;;;;;22.90;29.80;;;;;;451322;264;1292;-46
2022/01/21 02:12:26;;;;;;;;;;;22.90;29.90;;;;;;459290;260;1182;-46
2022/01/21 02:14:31;;;;;;;;;;;22.90;29.90;;;;;;459884;259;1063;-46
2022/01/21 02:16:40;;;;;;;;;;;22.90;29.90;;;;;;458919;259;2479;-46
2022/01/21 02:23:14;;;;;;;;;;;22.90;29.80;;;;;;458900;260;1071;-46
2022/01/21 02:25:19;;;;;;;;;;;22.90;29.80;;;;;;458951;260;2130;-46
2022/01/21 02:27:19;;;;;;;;;;;22.90;29.80;;;;;;458781;260;2397;-46
2022/01/21 02:29:27;;;;;;;;;;;22.90;29.80;;;;;;458886;260;1636;-46
2022/01/21 02:31:27;;;;;;;;;;;22.90;29.80;;;;;;458757;259;2500;-46
2022/01/21 02:33:28;;;;;;;;;;;22.90;29.80;;;;;;458900;260;1156;-46
2022/01/21 02:35:30;;;;;;;;;;;22.90;29.80;;;;;;459258;260;1235;-46
2022/01/21 02:37:31;;;;;;;;;;;22.90;29.80;;;;;;459004;260;1203;-46
2022/01/21 02:39:32;;;;;;;;;;;22.90;29.80;;;;;;459321;260;1188;-46
2022/01/21 02:41:34;;;;;;;;;;;22.90;29.80;;;;;;459253;260;1206;-46
2022/01/21 02:43:35;;;;;;;;;;;22.90;29.80;;;;;;459029;260;1219;-46
2022/01/21 02:45:37;;;;;;;;;;;22.90;29.80;;;;;;459283;260;2141;-46
2022/01/21 02:47:38;;;;;;;;;;;22.90;29.80;;;;;;459276;259;2255;-46
2022/01/21 02:49:39;;;;;;;;;;;22.90;29.80;;;;;;459329;260;1169;-46
2022/01/21 02:51:41;;;;;;;;;;;22.90;29.80;;;;;;459142;260;1617;-46
2022/01/21 02:56:02;;;;;;;;;;;22.90;29.80;;;;;;459065;260;1440;-46
2022/01/21 02:58:04;;;;;;;;;;;23.00;29.80;;;;;;459316;260;1226;-46
2022/01/21 03:00:05;;;;;;;;;;;22.90;29.90;;;;;;459321;260;1093;-46
2022/01/21 03:02:06;;;;;;;;;;;22.90;29.90;;;;;;459142;260;1321;-46
2022/01/21 03:04:08;;;;;;;;;;;22.70;30.00;;;;;;458857;260;1232;-46
2022/01/21 03:06:09;;;;;;;;;;;22.40;30.40;;;;;;459084;260;2220;-46
2022/01/21 03:08:10;;;;;;;;;;;22.20;30.70;;;;;;458878;260;1343;-46
2022/01/21 03:10:12;;;;;;;;;;;22.10;31.00;;;;;;459295;260;1096;-46
2022/01/21 03:12:13;;;;;;;;;;;22.00;31.10;;;;;;459281;260;1397;-47
2022/01/21 03:14:14;;;;;;;;;;;21.90;31.10;;;;;;458907;260;1217;-46
2022/01/21 03:16:16;;;;;;;;;;;21.80;31.30;;;;;;458841;260;1225;-46
2022/01/21 03:18:17;;;;;;;;;;;21.80;31.40;;;;;;459296;260;1222;-46
2022/01/21 03:20:18;;;;;;;;;;;21.70;31.40;;;;;;459320;260;1109;-46
2022/01/21 03:22:19;;;;;;;;;;;21.70;31.60;;;;;;458968;260;1615;-46
2022/01/21 03:24:21;;;;;;;;;;;21.60;31.60;;;;;;451463;264;1567;-46
2022/01/21 03:26:22;;;;;;;;;;;21.60;31.70;;;;;;459843;259;2149;-46
2022/01/21 03:28:24;;;;;;;;;;;21.60;31.70;;;;;;459301;258;1217;-46
2022/01/21 03:30:25;;;;;;;;;;;21.50;31.70;;;;;;458952;260;1102;-46
2022/01/21 03:32:26;;;;;;;;;;;21.60;31.80;;;;;;458809;260;1292;-46
2022/01/21 03:34:27;;;;;;;;;;;21.50;31.70;;;;;;451529;264;1165;-46
2022/01/21 03:36:29;;;;;;;;;;;21.50;31.80;;;;;;451042;264;1087;-46
2022/01/21 03:38:30;;;;;;;;;;;21.50;31.80;;;;;;458946;260;1639;-46
2022/01/21 03:40:31;;;;;;;;;;;21.50;31.90;;;;;;451439;264;1103;-46
2022/01/21 03:42:33;;;;;;;;;;;21.40;31.90;;;;;;451053;264;1372;-46
2022/01/21 03:44:34;;;;;;;;;;;21.40;31.90;;;;;;460281;259;1075;-46
2022/01/21 03:46:35;;;;;;;;;;;21.40;31.90;;;;;;458838;259;1373;-46
2022/01/21 03:48:37;;;;;;;;;;;21.40;31.90;;;;;;458909;260;1184;-46
2022/01/21 03:50:38;;;;;;;;;;;21.40;31.90;;;;;;459189;260;1211;-46
2022/01/21 03:52:39;;;;;;;;;;;21.50;31.90;;;;;;459136;259;1334;-46
2022/01/21 03:54:41;;;;;;;;;;;21.40;31.90;;;;;;459334;260;991;-46
2022/01/21 03:56:42;;;;;;;;;;;21.40;31.80;;;;;;459008;260;2070;-46
2022/01/21 03:58:43;;;;;;;;;;;21.40;31.90;;;;;;458936;260;1082;-46
2022/01/21 04:00:45;;;;;;;;;;;21.40;31.90;;;;;;459279;260;1261;-46
2022/01/21 04:02:46;;;;;;;;;;;21.40;32.00;;;;;;459272;259;1433;-46
2022/01/21 04:04:47;;;;;;;;;;;21.40;31.90;;;;;;458919;260;2263;-46
2022/01/21 04:06:48;;;;;;;;;;;21.40;31.90;;;;;;458811;260;1284;-46
2022/01/21 04:08:50;;;;;;;;;;;21.40;31.90;;;;;;458974;260;1224;-46
2022/01/21 04:10:51;;;;;;;;;;;21.30;31.90;;;;;;459088;260;1247;-46
2022/01/21 04:12:52;;;;;;;;;;;21.40;32.00;;;;;;458965;260;1316;-46
2022/01/21 04:14:54;;;;;;;;;;;21.30;31.90;;;;;;459286;260;1096;-46
2022/01/21 04:16:55;;;;;;;;;;;21.30;31.90;;;;;;458838;259;1319;-46
2022/01/21 04:18:56;;;;;;;;;;;21.30;32.00;;;;;;458942;260;1106;-46
2022/01/21 04:20:58;;;;;;;;;;;21.40;32.00;;;;;;459185;260;1492;-46
2022/01/21 04:22:59;;;;;;;;;;;21.30;32.00;;;;;;458883;260;1331;-46
2022/01/21 04:25:01;;;;;;;;;;;21.30;32.00;;;;;;459309;260;2137;-46
2022/01/21 04:27:02;;;;;;;;;;;21.30;32.00;;;;;;458868;260;1264;-46
2022/01/21 04:29:03;;;;;;;;;;;21.30;32.00;;;;;;458882;260;1087;-45
2022/01/21 04:31:05;;;;;;;;;;;21.30;32.00;;;;;;459163;260;1247;-46
2022/01/21 04:33:06;;;;;;;;;;;21.30;31.90;;;;;;458965;260;2406;-46
2022/01/21 04:35:07;;;;;;;;;;;21.30;32.00;;;;;;458883;260;1181;-46
2022/01/21 04:37:11;;;;;;;;;;;21.30;32.00;;;;;;459243;260;1220;-46
2022/01/21 04:39:16;;;;;;;;;;;21.30;32.00;;;;;;458826;259;2504;-46
2022/01/21 04:41:35;;;;;;;;;;;21.30;32.00;;;;;;458846;259;2261;-46
2022/01/21 04:47:58;;;;;;;;;;;21.30;32.00;;;;;;458864;260;1180;-43
2022/01/21 04:50:00;;;;;;;;;;;21.20;32.00;;;;;;459280;260;1058;-43
2022/01/21 04:52:04;;;;;;;;;;;21.30;32.00;;;;;;458800;260;1134;-43
2022/01/21 04:54:05;;;;;;;;;;;21.20;32.00;;;;;;458977;260;1278;-43
2022/01/21 04:56:07;;;;;;;;;;;21.20;32.00;;;;;;458819;260;1158;-43
2022/01/21 04:58:08;;;;;;;;;;;21.30;32.10;;;;;;458978;260;1182;-43
2022/01/21 05:00:09;;;;;;;;;;;21.20;32.00;;;;;;459209;260;1049;-46
2022/01/21 05:02:11;;;;;;;;;;;21.30;32.00;;;;;;458984;260;1107;-46
2022/01/21 05:04:12;;;;;;;;;;;21.20;32.00;;;;;;459212;260;1043;-46
2022/01/21 05:06:13;;;;;;;;;;;21.20;32.00;;;;;;458772;260;2198;-46
2022/01/21 05:08:24;;;;;;;;;;;21.20;32.00;;;;;;458982;260;1285;-46
2022/01/21 05:10:23;;;;;;;;;;;21.20;32.10;;;;;;458578;259;2059;-46
2022/01/21 05:12:25;;;;;;;;;;;21.20;32.10;;;;;;458758;260;2390;-46
2022/01/21 05:14:38;;;;;;;;;;;21.20;32.10;;;;;;459164;259;2129;-46
2022/01/21 05:16:33;;;;;;;;;;;21.20;32.10;;;;;;458024;259;2306;-46
2022/01/21 05:18:31;;;;;;;;;;;21.20;32.10;;;;;;459006;259;2228;-46
2022/01/21 05:20:33;;;;;;;;;;;21.20;32.20;;;;;;459103;260;1080;-46
2022/01/21 05:22:34;;;;;;;;;;;21.10;32.20;;;;;;458779;260;1088;-46
2022/01/21 05:24:35;;;;;;;;;;;21.10;32.30;;;;;;458905;260;1238;-46
2022/01/21 05:26:38;;;;;;;;;;;21.10;32.30;;;;;;458738;253;2198;-46
2022/01/21 05:28:38;;;;;;;;;;;21.00;32.30;;;;;;458994;260;2711;-45
2022/01/21 05:30:39;;;;;;;;;;;21.10;32.30;;;;;;459041;260;1074;-45
2022/01/21 05:32:40;;;;;;;;;;;21.10;32.30;;;;;;458818;260;1419;-46
2022/01/21 05:34:42;;;;;;;;;;;21.00;32.30;;;;;;459253;260;1054;-46
2022/01/21 05:36:43;;;;;;;;;;;21.00;32.30;;;;;;459125;260;1371;-46
2022/01/21 05:38:44;;;;;;;;;;;21.00;32.30;;;;;;458840;260;1338;-46
2022/01/21 05:40:46;;;;;;;;;;;21.00;32.30;;;;;;458836;260;1215;-46
2022/01/21 05:42:47;;;;;;;;;;;21.00;32.30;;;;;;458745;260;2488;-46
2022/01/21 05:47:08;;;;;;;;;;;20.90;32.30;;;;;;458930;260;2114;-46
2022/01/21 05:49:11;;;;;;;;;;;20.90;32.40;;;;;;458693;260;1222;-46
2022/01/21 05:51:10;;;;;;;;;;;20.90;32.50;;;;;;458758;259;2380;-46
2022/01/21 05:53:12;;;;;;;;;;;20.90;32.50;;;;;;458821;260;1228;-46
2022/01/21 05:55:13;;;;;;;;;;;20.90;32.50;;;;;;458807;260;2312;-46
2022/01/21 05:57:16;;;;;;;;;;;20.90;32.50;;;;;;459024;260;1216;-45
2022/01/21 05:59:15;;;;;;;;;;;20.90;32.50;;;;;;458653;259;2904;-46
2022/01/21 06:01:17;;;;;;;;;;;20.90;32.50;;;;;;458792;260;1248;-45
2022/01/21 06:03:18;;;;;;;;;;;20.90;32.50;;;;;;458799;260;1287;-45
2022/01/21 06:05:19;;;;;;;;;;;20.80;32.40;;;;;;458773;260;1073;-46
2022/01/21 06:07:21;;;;;;;;;;;20.90;32.50;;;;;;458779;260;2201;-46
2022/01/21 06:09:22;;;;;;;;;;;20.90;32.50;;;;;;458681;260;1161;-46
2022/01/21 06:11:23;;;;;;;;;;;20.90;32.40;;;;;;458599;260;1848;-46
2022/01/21 06:13:25;;;;;;;;;;;20.90;32.50;;;;;;458609;260;1080;-46
2022/01/21 06:15:26;;;;;;;;;;;20.90;32.40;;;;;;458958;260;1069;-46
2022/01/21 06:17:28;;;;;;;;;;;20.90;32.50;;;;;;458756;260;1211;-46
2022/01/21 06:19:29;;;;;;;;;;;20.80;32.40;;;;;;458769;260;1107;-45
2022/01/21 06:21:30;;;;;;;;;;;20.80;32.50;;;;;;458956;260;1490;-46
2022/01/21 06:23:32;;;;;;;;;;;20.80;32.50;;;;;;458686;260;1074;-45
2022/01/21 06:25:33;;;;;;;;;;;20.90;32.50;;;;;;458749;260;2158;-46
2022/01/21 06:27:36;;;;;;;;;;;20.80;32.50;;;;;;458687;260;1343;-46
2022/01/21 06:29:35;;;;;;;;;;;20.80;32.50;;;;;;458584;259;2135;-46
2022/01/21 06:31:37;;;;;;;;;;;20.80;32.60;;;;;;458646;260;1382;-45
2022/01/21 06:33:38;;;;;;;;;;;20.80;32.50;;;;;;458854;260;1123;-45
2022/01/21 06:35:39;;;;;;;;;;;20.70;32.60;;;;;;458766;260;1077;-45
2022/01/21 06:37:41;;;;;;;;;;;20.70;32.60;;;;;;458653;260;1412;-46
2022/01/21 06:39:42;;;;;;;;;;;20.70;32.60;;;;;;458888;260;1376;-46
2022/01/21 06:41:46;;;;;;;;;;;20.70;32.60;;;;;;459034;260;1047;-46
2022/01/21 06:43:45;;;;;;;;;;;20.80;32.60;;;;;;458542;259;2300;-45
2022/01/21 06:45:46;;;;;;;;;;;20.80;32.60;;;;;;458832;260;2139;-46
2022/01/21 06:47:48;;;;;;;;;;;20.80;32.60;;;;;;458559;260;1207;-46
2022/01/21 06:49:49;;;;;;;;;;;20.80;32.60;;;;;;458727;260;1043;-45
2022/01/21 06:51:50;;;;;;;;;;;20.70;32.50;;;;;;458505;260;1395;-46
2022/01/21 06:53:52;;;;;;;;;;;20.80;32.60;;;;;;458548;260;1344;-46
2022/01/21 06:55:54;;;;;;;;;;;20.80;32.60;;;;;;458583;260;1237;-46
2022/01/21 06:57:54;;;;;;;;;;;20.80;32.60;;;;;;458596;260;2505;-46
2022/01/21 06:59:56;;;;;;;;;;;20.70;32.60;;;;;;458631;260;1102;-46
2022/01/21 07:01:57;;;;;;;;;;;20.70;32.60;;;;;;458767;260;1183;-45
2022/01/21 07:03:58;;;;;;;;;;;20.70;32.60;;;;;;458687;260;1071;-46
2022/01/21 07:06:00;;;;;;;;;;;20.70;32.60;;;;;;458548;260;2142;-45
2022/01/21 07:08:01;;;;;;;;;;;20.70;32.60;;;;;;458494;260;1054;-46
2022/01/21 07:10:04;;;;;;;;;;;20.70;32.60;;;;;;458562;260;1189;-46
2022/01/21 07:12:04;;;;;;;;;;;20.70;32.60;;;;;;458399;260;2064;-45
2022/01/21 07:14:05;;;;;;;;;;;20.70;32.60;;;;;;458274;260;1203;-45
2022/01/21 07:16:07;;;;;;;;;;;20.70;32.60;;;;;;458280;260;1309;-46
2022/01/21 07:18:08;;;;;;;;;;;20.70;32.60;;;;;;458404;260;1081;-46
2022/01/21 07:20:09;;;;;;;;;;;20.70;32.50;;;;;;458389;260;1208;-46
2022/01/21 07:22:11;;;;;;;;;;;20.70;32.60;;;;;;458332;260;1146;-46
2022/01/21 07:24:12;;;;;;;;;;;20.70;32.50;;;;;;458351;260;1735;-45
2022/01/21 07:26:14;;;;;;;;;;;20.70;32.50;;;;;;458377;260;2198;-46
2022/01/21 07:28:15;;;;;;;;;;;20.70;32.50;;;;;;458500;260;1195;-45
2022/01/21 07:30:16;;;;;;;;;;;20.70;32.50;;;;;;458557;260;1092;-46
2022/01/21 07:32:18;;;;;;;;;;;20.70;32.40;;;;;;458606;260;1091;-46
2022/01/21 07:34:19;;;;;;;;;;;20.70;32.50;;;;;;458354;260;1390;-46
2022/01/21 07:36:20;;;;;;;;;;;20.70;32.40;;;;;;458524;260;1107;-46
2022/01/21 07:38:22;;;;;;;;;;;20.70;32.30;;;;;;458488;260;1371;-46
2022/01/21 07:40:23;;;;;;;;;;;20.70;32.30;;;;;;458434;260;1210;-45
2022/01/21 07:42:25;;;;;;;;;;;20.70;32.30;;;;;;458353;260;1208;-46
2022/01/21 07:44:26;;;;;;;;;;;20.70;32.30;;;;;;458378;260;1065;-46
2022/01/21 07:46:27;;;;;;;;;;;20.80;32.20;;;;;;458323;260;2147;-46
2022/01/21 07:48:28;;;;;;;;;;;20.80;32.20;;;;;;458474;260;1259;-46
2022/01/21 07:50:30;;;;;;;;;;;20.80;32.30;;;;;;458392;260;1274;-45
2022/01/21 07:52:31;;;;;;;;;;;20.70;32.20;;;;;;458286;260;1124;-46
2022/01/21 07:54:32;;;;;;;;;;;20.70;32.20;;;;;;458146;260;1111;-46
2022/01/21 07:56:34;;;;;;;;;;;20.70;32.20;;;;;;458235;260;1217;-46
2022/01/21 07:58:35;;;;;;;;;;;20.70;32.20;;;;;;458386;260;1149;-46
2022/01/21 08:00:36;;;;;;;;;;;20.70;32.20;;;;;;458240;260;1447;-46
2022/01/21 08:02:37;;;;;;;;;;;20.60;32.10;;;;;;458246;260;1345;-45
2022/01/21 08:04:39;;;;;;;;;;;20.70;32.10;;;;;;458372;260;1092;-45
2022/01/21 08:06:40;;;;;;;;;;;20.70;32.20;;;;;;458342;260;2194;-46
2022/01/21 08:08:41;;;;;;;;;;;20.60;32.10;;;;;;458353;260;1359;-46
2022/01/21 08:10:43;;;;;;;;;;;20.70;32.10;;;;;;458267;260;2131;-45
2022/01/21 08:12:44;;;;;;;;;;;20.70;32.10;;;;;;458341;260;1220;-46
2022/01/21 08:14:45;;;;;;;;;;;20.60;32.00;;;;;;458436;260;1134;-46
2022/01/21 08:16:47;;;;;;;;;;;20.60;32.00;;;;;;458344;260;1310;-45
2022/01/21 08:18:49;;;;;;;;;;;20.60;32.00;;;;;;458239;260;1310;-46
2022/01/21 08:20:50;;;;;;;;;;;20.60;32.00;;;;;;458048;260;1277;-46
2022/01/21 08:22:51;;;;;;;;;;;20.60;32.00;;;;;;458427;260;1070;-46
2022/01/21 08:24:52;;;;;;;;;;;20.60;32.00;;;;;;458281;260;1087;-46
2022/01/21 08:26:54;;;;;;;;;;;20.60;32.00;;;;;;458301;260;2209;-46
2022/01/21 08:28:56;;;;;;;;;;;20.60;31.90;;;;;;458270;260;1343;-46
2022/01/21 08:30:56;;;;;;;;;;;20.60;31.90;;;;;;458193;260;2034;-46
2022/01/21 08:32:58;;;;;;;;;;;20.60;31.80;;;;;;458251;260;1158;-46
2022/01/21 08:34:59;;;;;;;;;;;20.60;31.80;;;;;;458250;260;1256;-46
2022/01/21 08:37:00;;;;;;;;;;;20.60;31.80;;;;;;458228;260;1248;-46
2022/01/21 08:39:02;;;;;;;;;;;20.60;31.80;;;;;;458242;260;1411;-46
2022/01/21 08:41:03;;;;;;;;;;;20.60;31.80;;;;;;458153;260;1252;-46
2022/01/21 08:43:04;;;;;;;;;;;20.60;31.80;;;;;;458427;260;1249;-46
2022/01/21 08:45:06;;;;;;;;;;;20.60;31.80;;;;;;458354;260;1336;-46
2022/01/21 08:47:07;;;;;;;;;;;20.60;31.80;;;;;;458060;260;2185;-46
2022/01/21 08:49:09;;;;;;;;;;;20.60;31.80;;;;;;458291;260;1266;-46
2022/01/21 08:51:15;;;;;;;;;;;20.60;31.80;;;;;;458213;260;1162;-46
2022/01/21 08:53:36;;;;;;;;;;;20.60;31.80;;;;;;457730;259;2332;-46
2022/01/21 08:55:13;;;;;;;;;;;20.50;31.70;;;;;;456833;260;1604;-46
2022/01/21 08:57:14;;;;;;;;;;;20.60;31.70;;;;;;458061;260;1350;-46
2022/01/21 08:59:16;;;;;;;;;;;20.60;31.70;;;;;;458038;260;1217;-45
2022/01/21 09:01:17;;;;;;;;;;;20.60;31.70;;;;;;458091;260;2016;-46
2022/01/21 09:03:18;;;;;;;;;;;20.60;31.60;;;;;;458018;260;1364;-46
2022/01/21 09:05:19;;;;;;;;;;;20.60;31.70;;;;;;458014;260;1354;-46
2022/01/21 09:07:21;;;;;;;;;;;20.50;31.70;;;;;;458101;260;2214;-46
2022/01/21 09:09:22;;;;;;;;;;;20.50;31.60;;;;;;458130;260;1104;-46
2022/01/21 09:11:23;;;;;;;;;;;20.60;31.60;;;;;;458101;260;1337;-46
2022/01/21 09:13:27;;;;;;;;;;;20.50;31.60;;;;;;458141;260;1204;-46
2022/01/21 09:15:26;;;;;;;;;;;20.50;31.50;;;;;;458008;259;2407;-46
2022/01/21 09:17:27;;;;;;;;;;;20.50;31.60;;;;;;458883;260;1023;-46
2022/01/21 09:19:29;;;;;;;;;;;20.50;31.60;;;;;;458885;260;1158;-46
2022/01/21 09:21:30;;;;;;;;;;;20.50;31.50;;;;;;458800;260;1390;-46
2022/01/21 09:23:31;;;;;;;;;;;20.50;31.50;;;;;;458786;260;970;-46
2022/01/21 09:25:33;;;;;;;;;;;20.50;31.50;;;;;;458304;260;1149;-46
2022/01/21 09:27:34;;;;;;;;;;;20.50;31.50;;;;;;457982;260;2202;-45
2022/01/21 09:29:35;;;;;;;;;;;20.50;31.50;;;;;;458693;260;870;-46
2022/01/21 09:31:37;;;;;;;;;;;20.50;31.50;;;;;;458698;260;1175;-46
2022/01/21 09:33:38;;;;;;;;;;;20.50;31.50;;;;;;458758;260;2089;-46
2022/01/21 09:35:39;;;;;;;;;;;20.50;31.40;;;;;;458404;260;1090;-46
2022/01/21 09:37:40;;;;;;;;;;;20.50;31.40;;;;;;458737;260;917;-45
2022/01/21 09:39:43;;;;;;;;;;;20.50;31.40;;;;;;458317;260;905;-46
2022/01/21 09:41:43;;;;;;;;;;;20.50;31.40;;;;;;458576;260;2260;-46
2022/01/21 09:43:44;;;;;;;;;;;20.40;31.40;;;;;;458442;260;973;-46
2022/01/21 09:45:46;;;;;;;;;;;20.50;31.50;;;;;;458809;260;1240;-46
2022/01/21 09:47:49;;;;;;;;;;;20.50;31.40;;;;;;458171;260;2214;-46
2022/01/21 09:49:48;;;;;;;;;;;20.50;31.30;;;;;;458066;260;2287;-46
2022/01/21 09:51:50;;;;;;;;;;;20.50;31.30;;;;;;457986;260;1204;-45
2022/01/21 09:53:51;;;;;;;;;;;20.50;31.40;;;;;;457944;260;1176;-45
2022/01/21 09:55:52;;;;;;;;;;;20.50;31.40;;;;;;457942;260;1311;-46
2022/01/21 09:57:54;;;;;;;;;;;20.50;31.30;;;;;;457988;260;1253;-46
2022/01/21 09:59:55;;;;;;;;;;;20.40;31.30;;;;;;458112;260;1112;-46
2022/01/21 10:01:56;;;;;;;;;;;20.50;31.40;;;;;;458180;252;1482;-45
2022/01/21 10:03:57;;;;;;;;;;;20.40;31.30;;;;;;458667;260;1118;-45
2022/01/21 10:05:59;;;;;;;;;;;20.50;31.20;;;;;;458712;260;1198;-45
2022/01/21 10:08:00;;;;;;;;;;;20.40;31.30;;;;;;458754;260;2205;-45
2022/01/21 10:10:07;;;;;;;;;;;20.50;31.30;;;;;;458384;260;1122;-45
2022/01/21 10:12:03;;;;;;;;;;;20.40;31.20;;;;;;458175;256;2023;-45
2022/01/21 10:14:04;;;;;;;;;;;20.50;31.20;;;;;;458353;260;1102;-45
2022/01/21 10:16:05;;;;;;;;;;;20.50;31.20;;;;;;458015;260;1278;-45
2022/01/21 10:18:07;;;;;;;;;;;20.50;31.20;;;;;;458334;260;1283;-45
2022/01/21 10:20:08;;;;;;;;;;;20.40;31.20;;;;;;458146;260;1211;-45
2022/01/21 10:22:11;;;;;;;;;;;20.40;31.20;;;;;;458277;260;1330;-45
2022/01/21 10:24:11;;;;;;;;;;;20.40;31.20;;;;;;457989;259;2171;-45
2022/01/21 10:26:12;;;;;;;;;;;20.40;31.10;;;;;;458037;260;1527;-45
2022/01/21 10:28:13;;;;;;;;;;;20.50;31.10;;;;;;458008;260;2194;-45
2022/01/21 10:30:15;;;;;;;;;;;20.70;30.60;;;;;;458144;260;1189;-45
2022/01/21 10:32:16;;;;;;;;;;;20.90;30.10;;;;;;458204;260;1213;-46
2022/01/21 10:34:17;;;;;;;;;;;21.00;30.00;;;;;;458152;260;1100;-45
2022/01/21 10:36:24;;;;;;;;;;;21.10;29.90;;;;;;458129;260;1222;-45
2022/01/21 10:38:27;;;;;;;;;;;21.20;29.70;;;;;;457882;259;2307;-45
2022/01/21 10:40:24;;;;;;;;;;;21.30;29.70;;;;;;457781;259;2265;-46
2022/01/21 10:42:25;;;;;;;;;;;21.40;29.50;;;;;;458129;259;1317;-45
2022/01/21 10:44:28;;;;;;;;;;;21.40;29.40;;;;;;458233;260;1194;-45
2022/01/21 10:46:28;;;;;;;;;;;21.50;29.40;;;;;;458060;260;2869;-45
2022/01/21 10:48:29;;;;;;;;;;;21.50;29.30;;;;;;458096;259;2186;-45
2022/01/21 10:50:31;;;;;;;;;;;21.50;29.30;;;;;;458062;260;1293;-45
2022/01/21 10:52:32;;;;;;;;;;;21.60;29.20;;;;;;458034;260;1095;-45
2022/01/21 10:54:33;;;;;;;;;;;21.60;29.20;;;;;;458073;260;1100;-45
2022/01/21 10:58:56;;;;;;;;;;;21.70;29.10;;;;;;457762;259;1750;-44
2022/01/21 11:00:56;;;;;;;;;;;21.70;29.10;;;;;;458145;259;1934;-46
2022/01/21 11:02:58;;;;;;;;;;;21.70;29.00;;;;;;458106;260;1294;-46
2022/01/21 11:05:02;;;;;;;;;;;21.70;28.90;;;;;;458063;260;1113;-46
2022/01/21 11:07:00;;;;;;;;;;;21.80;29.00;;;;;;457969;259;2250;-46
2022/01/21 11:09:02;;;;;;;;;;;21.80;29.00;;;;;;458276;260;2259;-46
2022/01/21 11:11:03;;;;;;;;;;;21.80;28.90;;;;;;458225;260;1252;-45
2022/01/21 11:13:04;;;;;;;;;;;21.90;29.00;;;;;;458187;260;1227;-45
2022/01/21 11:15:06;;;;;;;;;;;21.90;28.90;;;;;;458192;260;1104;-45
2022/01/21 11:17:07;;;;;;;;;;;21.90;28.80;;;;;;458064;260;1249;-45
2022/01/21 11:19:11;;;;;;;;;;;21.90;28.70;;;;;;458156;260;1291;-45
2022/01/21 11:21:10;;;;;;;;;;;22.00;28.80;;;;;;458017;259;2058;-45
2022/01/21 11:23:11;;;;;;;;;;;22.00;28.80;;;;;;458147;260;1304;-45
2022/01/21 11:25:13;;;;;;;;;;;22.00;28.70;;;;;;458109;260;1311;-46
2022/01/21 11:27:14;;;;;;;;;;;22.00;28.80;;;;;;458302;260;1176;-46
2022/01/21 11:29:17;;;;;;;;;;;22.00;28.80;;;;;;458442;260;2213;-45
2022/01/21 11:31:16;;;;;;;;;;;22.00;28.60;;;;;;458162;259;2219;-45
2022/01/21 11:33:18;;;;;;;;;;;22.10;28.70;;;;;;458320;260;1076;-45
2022/01/21 11:35:20;;;;;;;;;;;22.10;28.70;;;;;;458290;260;1120;-45
2022/01/21 11:37:20;;;;;;;;;;;22.10;28.70;;;;;;458223;260;1354;-45
2022/01/21 11:39:23;;;;;;;;;;;22.10;28.60;;;;;;458203;260;1125;-46
2022/01/21 11:41:24;;;;;;;;;;;22.10;28.60;;;;;;458096;259;2253;-45
2022/01/21 11:43:25;;;;;;;;;;;22.10;28.60;;;;;;458500;260;1548;-45
2022/01/21 11:45:42;;;;;;;;;;;22.10;28.50;;;;;;458207;260;1112;-45
2022/01/21 11:47:49;;;;;;;;;;;22.10;28.50;;;;;;457445;259;2330;-46
2022/01/21 11:49:39;;;;;;;;;;;22.10;28.50;;;;;;457490;259;2394;-45
2022/01/21 11:51:41;;;;;;;;;;;22.10;28.50;;;;;;458099;260;1346;-46
2022/01/21 11:53:42;;;;;;;;;;;22.20;28.60;;;;;;458412;260;1265;-46
2022/01/21 11:55:45;;;;;;;;;;;22.10;28.40;;;;;;458176;260;1272;-46
2022/01/21 11:57:45;;;;;;;;;;;22.20;28.60;;;;;;458038;259;2169;-45
2022/01/21 11:59:57;;;;;;;;;;;22.20;28.40;;;;;;458176;260;1225;-45
2022/01/21 12:01:52;;;;;;;;;;;22.20;28.40;;;;;;457667;259;2210;-45
2022/01/21 12:03:53;;;;;;;;;;;22.20;28.50;;;;;;457952;260;1086;-46
2022/01/21 12:05:55;;;;;;;;;;;22.20;28.40;;;;;;458079;260;1371;-46
2022/01/21 12:07:57;;;;;;;;;;;22.20;28.50;;;;;;457974;260;2214;-45
2022/01/21 12:09:57;;;;;;;;;;;22.20;28.40;;;;;;457995;260;2743;-46
2022/01/21 12:11:58;;;;;;;;;;;22.20;28.40;;;;;;458057;260;1191;-46
2022/01/21 12:14:02;;;;;;;;;;;22.30;28.40;;;;;;458047;260;1318;-45
2022/01/21 12:18:32;;;;;;;;;;;22.30;28.30;;;;;;458145;260;1144;-45
2022/01/21 12:20:21;;;;;;;;;;;22.30;28.30;;;;;;457555;259;2050;-45
2022/01/21 12:22:23;;;;;;;;;;;22.30;28.40;;;;;;458118;260;1209;-46
2022/01/21 12:24:24;;;;;;;;;;;22.30;28.40;;;;;;458130;260;1025;-46
2022/01/21 12:26:25;;;;;;;;;;;22.30;28.30;;;;;;458142;260;1307;-46
2022/01/21 12:28:27;;;;;;;;;;;22.30;28.30;;;;;;458336;260;2206;-45
2022/01/21 12:30:28;;;;;;;;;;;22.30;28.20;;;;;;458274;260;1202;-45
2022/01/21 12:32:38;;;;;;;;;;;22.30;28.30;;;;;;458459;260;1304;-45
2022/01/21 12:34:31;;;;;;;;;;;22.30;28.20;;;;;;457752;259;2420;-46
2022/01/21 12:36:34;;;;;;;;;;;22.40;28.30;;;;;;458419;260;1394;-46
2022/01/21 12:41:09;;;;;;;;;;;22.30;28.20;;;;;;458278;260;1627;-45
2022/01/21 12:43:11;;;;;;;;;;;22.40;28.30;;;;;;458288;260;1099;-45
2022/01/21 12:45:13;;;;;;;;;;;22.40;28.20;;;;;;458331;260;1167;-46
2022/01/21 12:47:13;;;;;;;;;;;22.40;28.20;;;;;;458179;260;2327;-45